createdAt,value
2018-10-07T00:00:06.664Z,15.66
2018-10-07T00:02:35.632Z,15.54
2018-10-07T00:05:04.596Z,15.44
2018-10-07T00:07:33.591Z,15.57
2018-10-07T00:10:02.581Z,15.59
2018-10-07T00:12:31.605Z,15.64
2018-10-07T00:15:00.582Z,15.71
2018-10-07T00:17:29.597Z,15.73
2018-10-07T00:19:58.577Z,15.76
2018-10-07T00:22:27.550Z,15.74
2018-10-07T00:24:56.547Z,15.74
2018-10-07T00:27:25.472Z,15.75
2018-10-07T00:29:54.466Z,15.68
2018-10-07T00:32:23.653Z,15.60
2018-10-07T00:34:52.616Z,15.56
2018-10-07T00:37:21.583Z,15.58
2018-10-07T00:39:50.761Z,15.60
2018-10-07T00:42:19.719Z,15.64
2018-10-07T00:44:48.717Z,15.57
2018-10-07T00:47:17.750Z,15.51
2018-10-07T00:49:46.726Z,15.57
2018-10-07T00:52:15.688Z,15.47
2018-10-07T00:54:44.626Z,15.55
2018-10-07T00:57:13.905Z,15.42
2018-10-07T00:59:42.894Z,15.48
2018-10-07T01:02:12.197Z,15.37
2018-10-07T01:04:41.342Z,15.43
2018-10-07T01:07:10.236Z,15.44
2018-10-07T01:09:39.170Z,15.38
2018-10-07T01:12:08.020Z,15.34
2018-10-07T01:14:36.915Z,15.43
2018-10-07T01:17:05.871Z,15.49
2018-10-07T01:19:34.801Z,15.42
2018-10-07T01:22:03.788Z,15.41
2018-10-07T01:24:32.701Z,15.18
2018-10-07T01:27:01.611Z,15.08
2018-10-07T01:29:30.517Z,15.10
2018-10-07T01:31:59.524Z,15.07
2018-10-07T01:34:28.441Z,15.08
2018-10-07T01:36:57.337Z,14.94
2018-10-07T01:39:26.281Z,14.95
2018-10-07T01:41:55.173Z,14.95
2018-10-07T01:44:24.064Z,14.95
2018-10-07T01:46:52.966Z,14.90
2018-10-07T01:49:22.069Z,14.96
2018-10-07T01:51:51.013Z,14.96
2018-10-07T01:54:19.880Z,14.97
2018-10-07T01:56:48.812Z,14.91
2018-10-07T01:59:17.726Z,14.87
2018-10-07T02:01:46.592Z,14.83
2018-10-07T02:04:15.521Z,14.91
2018-10-07T02:06:44.457Z,14.93
2018-10-07T02:09:13.412Z,14.71
2018-10-07T02:11:42.334Z,14.54
2018-10-07T02:14:11.195Z,14.88
2018-10-07T02:16:40.085Z,14.81
2018-10-07T02:19:09.198Z,14.68
2018-10-07T02:21:38.081Z,14.67
2018-10-07T02:24:07.567Z,14.28
2018-10-07T02:26:36.449Z,14.38
2018-10-07T02:29:05.455Z,14.01
2018-10-07T02:31:34.326Z,14.03
2018-10-07T02:34:03.315Z,14.06
2018-10-07T02:36:32.219Z,14.03
2018-10-07T02:39:01.231Z,13.94
2018-10-07T02:41:30.101Z,13.88
2018-10-07T02:43:59.008Z,13.75
2018-10-07T02:46:28.035Z,13.40
2018-10-07T02:48:56.937Z,13.58
2018-10-07T02:51:25.819Z,13.68
2018-10-07T02:53:54.789Z,13.17
2018-10-07T02:56:23.686Z,13.19
2018-10-07T02:58:52.570Z,12.99
2018-10-07T03:01:21.470Z,13.01
2018-10-07T03:03:50.390Z,12.85
2018-10-07T03:06:19.341Z,12.99
2018-10-07T03:08:48.312Z,12.79
2018-10-07T03:11:17.202Z,12.87
2018-10-07T03:13:46.060Z,12.71
2018-10-07T03:16:14.976Z,12.74
2018-10-07T03:18:43.826Z,12.60
2018-10-07T03:21:12.778Z,12.69
2018-10-07T03:23:41.664Z,12.40
2018-10-07T03:26:10.509Z,12.32
2018-10-07T03:28:39.470Z,12.36
2018-10-07T03:31:08.347Z,12.24
2018-10-07T03:33:37.371Z,12.01
2018-10-07T03:36:06.464Z,11.97
2018-10-07T03:38:35.346Z,12.09
2018-10-07T03:41:04.230Z,11.92
2018-10-07T03:43:33.109Z,11.85
2018-10-07T03:46:02.013Z,11.81
2018-10-07T03:48:31.087Z,11.78
2018-10-07T03:50:59.961Z,11.76
2018-10-07T03:53:28.834Z,12.10
2018-10-07T03:55:57.869Z,11.97
2018-10-07T03:58:26.727Z,11.85
2018-10-07T04:00:55.630Z,11.87
2018-10-07T04:03:24.542Z,11.69
2018-10-07T04:05:53.485Z,11.57
2018-10-07T04:08:22.362Z,11.85
2018-10-07T04:10:51.256Z,11.95
2018-10-07T04:13:20.172Z,11.16
2018-10-07T04:15:49.061Z,11.46
2018-10-07T04:18:18.468Z,11.74
2018-10-07T04:20:47.348Z,11.46
2018-10-07T04:23:16.766Z,11.64
2018-10-07T04:25:45.650Z,11.68
2018-10-07T04:28:14.513Z,11.38
2018-10-07T04:30:43.438Z,11.80
2018-10-07T04:33:12.333Z,11.78
2018-10-07T04:35:41.201Z,11.74
2018-10-07T04:38:10.248Z,11.39
2018-10-07T04:40:39.134Z,11.84
2018-10-07T04:43:08.008Z,11.70
2018-10-07T04:45:36.901Z,11.64
2018-10-07T04:48:05.761Z,11.27
2018-10-07T04:50:34.642Z,11.42
2018-10-07T04:53:03.576Z,11.48
2018-10-07T04:55:32.481Z,11.59
2018-10-07T04:58:01.366Z,11.37
2018-10-07T05:00:30.268Z,11.40
2018-10-07T05:02:59.161Z,11.39
2018-10-07T05:05:28.218Z,11.34
2018-10-07T05:07:57.260Z,11.56
2018-10-07T05:10:59.609Z,11.50
2018-10-07T05:13:49.026Z,11.27
2018-10-07T05:16:52.617Z,11.58
2018-10-07T05:19:21.573Z,11.45
2018-10-07T05:21:50.534Z,11.37
2018-10-07T05:24:19.447Z,11.20
2018-10-07T05:26:48.343Z,11.45
2018-10-07T05:29:17.284Z,11.35
2018-10-07T05:31:46.218Z,11.40
2018-10-07T05:34:15.147Z,11.50
2018-10-07T05:36:44.015Z,11.11
2018-10-07T05:39:13.216Z,11.25
2018-10-07T05:41:42.191Z,11.31
2018-10-07T05:44:11.179Z,10.84
2018-10-07T05:46:40.314Z,10.86
2018-10-07T05:49:09.191Z,11.19
2018-10-07T05:51:38.081Z,10.76
2018-10-07T05:54:07.165Z,11.07
2018-10-07T05:56:36.035Z,10.76
2018-10-07T05:59:05.623Z,10.67
2018-10-07T06:01:50.032Z,10.82
2018-10-07T06:05:22.268Z,11.06
2018-10-07T06:07:51.482Z,10.98
2018-10-07T06:10:20.386Z,10.82
2018-10-07T06:12:49.273Z,10.84
2018-10-07T06:15:27.888Z,10.60
2018-10-07T06:17:57.035Z,10.68
2018-10-07T06:20:26.144Z,10.81
2018-10-07T06:22:55.363Z,10.95
2018-10-07T06:25:24.303Z,10.97
2018-10-07T06:27:54.865Z,10.97
2018-10-07T06:30:23.732Z,10.73
2018-10-07T06:32:53.259Z,10.99
2018-10-07T06:35:22.976Z,10.66
2018-10-07T06:37:51.865Z,10.89
2018-10-07T06:40:20.755Z,10.47
2018-10-07T06:42:50.633Z,10.90
2018-10-07T06:45:19.813Z,10.98
2018-10-07T06:47:48.852Z,11.05
2018-10-07T06:50:17.727Z,11.13
2018-10-07T06:52:46.605Z,10.77
2018-10-07T06:55:15.523Z,10.98
2018-10-07T06:57:44.425Z,10.78
2018-10-07T07:00:13.308Z,10.87
2018-10-07T07:02:42.234Z,10.71
2018-10-07T07:05:11.136Z,10.91
2018-10-07T07:07:40.032Z,10.87
2018-10-07T07:10:08.938Z,10.80
2018-10-07T07:12:37.835Z,10.72
2018-10-07T07:15:07.070Z,10.67
2018-10-07T07:17:35.981Z,10.79
2018-10-07T07:20:04.893Z,10.87
2018-10-07T07:22:33.911Z,11.11
2018-10-07T07:25:02.783Z,10.88
2018-10-07T07:27:32.026Z,10.86
2018-10-07T07:30:00.903Z,10.90
2018-10-07T07:32:29.737Z,10.75
2018-10-07T07:34:58.644Z,10.56
2018-10-07T07:37:27.502Z,10.62
2018-10-07T07:39:56.390Z,10.74
2018-10-07T07:42:25.299Z,11.05
2018-10-07T07:44:54.124Z,10.88
2018-10-07T07:47:23.034Z,10.77
2018-10-07T07:49:51.876Z,10.87
2018-10-07T07:52:20.771Z,10.89
2018-10-07T07:54:49.654Z,10.77
2018-10-07T07:57:18.541Z,11.13
2018-10-07T07:59:47.439Z,11.13
2018-10-07T08:02:16.293Z,11.09
2018-10-07T08:04:45.176Z,11.04
2018-10-07T08:07:14.075Z,11.10
2018-10-07T08:09:43.021Z,10.87
2018-10-07T08:12:11.906Z,10.98
2018-10-07T08:14:40.824Z,10.99
2018-10-07T08:17:09.725Z,11.12
2018-10-07T08:19:42.157Z,11.19
2018-10-07T08:22:11.083Z,11.23
2018-10-07T08:24:40.004Z,11.30
2018-10-07T08:27:08.906Z,11.27
2018-10-07T08:29:37.859Z,11.24
2018-10-07T08:32:06.741Z,11.20
2018-10-07T08:34:35.595Z,11.19
2018-10-07T08:37:04.514Z,11.10
2018-10-07T08:39:33.369Z,11.34
2018-10-07T08:42:02.284Z,11.25
2018-10-07T08:44:31.217Z,11.47
2018-10-07T08:47:00.098Z,11.49
2018-10-07T08:49:29.017Z,11.41
2018-10-07T08:51:57.945Z,11.50
2018-10-07T08:54:26.784Z,11.46
2018-10-07T08:56:55.860Z,11.60
2018-10-07T08:59:24.968Z,11.39
2018-10-07T09:01:53.925Z,11.35
2018-10-07T09:04:22.849Z,11.44
2018-10-07T09:06:51.753Z,11.42
2018-10-07T09:09:20.610Z,11.30
2018-10-07T09:11:49.507Z,11.51
2018-10-07T09:14:18.404Z,11.51
2018-10-07T09:16:47.261Z,11.55
2018-10-07T09:19:24.596Z,11.61
2018-10-07T09:21:54.013Z,11.80
2018-10-07T09:24:22.890Z,11.74
2018-10-07T09:26:51.880Z,11.76
2018-10-07T09:29:20.683Z,11.65
2018-10-07T09:31:49.611Z,11.85
2018-10-07T09:34:18.503Z,11.84
2018-10-07T09:36:47.410Z,11.81
2018-10-07T09:39:16.339Z,11.71
2018-10-07T09:41:45.225Z,11.71
2018-10-07T09:44:14.139Z,11.81
2018-10-07T09:46:43.052Z,11.69
2018-10-07T09:49:12.048Z,11.72
2018-10-07T09:51:41.037Z,11.78
2018-10-07T09:54:09.885Z,11.94
2018-10-07T09:56:38.787Z,11.91
2018-10-07T09:59:07.687Z,11.94
2018-10-07T10:01:36.584Z,12.02
2018-10-07T10:04:05.569Z,12.05
2018-10-07T10:06:34.347Z,12.05
2018-10-07T10:09:03.291Z,12.22
2018-10-07T10:11:32.182Z,12.16
2018-10-07T10:14:01.406Z,12.12
2018-10-07T10:16:37.605Z,12.07
2018-10-07T10:19:10.209Z,12.24
2018-10-07T10:21:47.588Z,12.42
2018-10-07T10:24:29.313Z,12.35
2018-10-07T10:27:07.904Z,12.44
2018-10-07T10:29:44.649Z,12.36
2018-10-07T10:32:54.249Z,12.34
2018-10-07T10:35:36.673Z,12.43
2018-10-07T10:38:09.679Z,12.36
2018-10-07T10:40:44.634Z,12.45
2018-10-07T10:43:22.224Z,12.49
2018-10-07T10:46:02.294Z,12.65
2018-10-07T10:48:36.571Z,12.59
2018-10-07T10:52:15.006Z,12.67
2018-10-07T10:54:48.119Z,12.59
2018-10-07T10:57:20.037Z,12.60
2018-10-07T11:00:23.149Z,12.65
2018-10-07T11:06:06.590Z,12.78
2018-10-07T11:08:47.841Z,12.67
2018-10-07T11:11:30.572Z,12.78
2018-10-07T11:15:21.460Z,12.68
2018-10-07T11:18:01.345Z,12.75
2018-10-07T11:21:41.091Z,13.00
2018-10-07T11:24:18.958Z,13.06
2018-10-07T11:28:59.581Z,12.81
2018-10-07T11:31:57.533Z,12.86
2018-10-07T11:34:37.761Z,12.89
2018-10-07T11:37:17.756Z,13.05
2018-10-07T11:41:58.069Z,13.15
2018-10-07T11:45:01.340Z,13.02
2018-10-07T11:47:37.963Z,13.12
2018-10-07T11:50:14.468Z,13.13
2018-10-07T11:52:57.306Z,13.17
2018-10-07T11:55:26.160Z,13.21
2018-10-07T11:57:55.124Z,13.19
2018-10-07T12:00:24.003Z,13.11
2018-10-07T12:02:52.997Z,13.19
2018-10-07T12:05:22.495Z,13.21
2018-10-07T12:07:52.089Z,13.30
2018-10-07T12:10:20.980Z,13.42
2018-10-07T12:12:49.915Z,13.33
2018-10-07T12:15:18.811Z,13.43
2018-10-07T12:17:47.773Z,13.50
2018-10-07T12:20:16.701Z,13.53
2018-10-07T12:22:46.019Z,13.47
2018-10-07T12:25:14.946Z,13.60
2018-10-07T12:27:43.878Z,13.43
2018-10-07T12:30:12.807Z,13.65
2018-10-07T12:32:41.689Z,13.65
2018-10-07T12:35:10.576Z,13.67
2018-10-07T12:37:39.514Z,13.68
2018-10-07T12:40:08.419Z,13.51
2018-10-07T12:42:37.372Z,13.65
2018-10-07T12:45:06.309Z,13.57
2018-10-07T12:47:35.388Z,13.57
2018-10-07T12:50:04.268Z,13.58
2018-10-07T12:52:33.387Z,13.72
2018-10-07T12:55:02.302Z,13.72
2018-10-07T12:57:31.217Z,13.63
2018-10-07T13:00:00.114Z,13.59
2018-10-07T13:02:29.007Z,13.69
2018-10-07T13:04:57.907Z,13.56
2018-10-07T13:07:26.767Z,13.66
2018-10-07T13:09:55.675Z,13.68
2018-10-07T13:12:24.569Z,13.71
2018-10-07T13:14:53.480Z,13.77
2018-10-07T13:17:22.414Z,13.69
2018-10-07T13:19:51.291Z,13.71
2018-10-07T13:22:20.206Z,13.84
2018-10-07T13:24:49.098Z,13.81
2018-10-07T13:27:18.054Z,13.89
2018-10-07T13:29:47.166Z,13.90
2018-10-07T13:32:16.036Z,13.85
2018-10-07T13:34:44.997Z,13.94
2018-10-07T13:37:13.986Z,13.96
2018-10-07T13:39:42.939Z,13.97
2018-10-07T13:42:11.807Z,14.06
2018-10-07T13:44:40.702Z,14.13
2018-10-07T13:47:09.582Z,14.00
2018-10-07T13:49:38.532Z,13.95
2018-10-07T13:52:07.459Z,13.93
2018-10-07T13:54:36.376Z,14.08
2018-10-07T13:57:05.248Z,14.09
2018-10-07T13:59:34.157Z,14.12
2018-10-07T14:02:03.011Z,14.06
2018-10-07T14:04:31.920Z,14.03
2018-10-07T14:07:00.846Z,14.16
2018-10-07T14:09:29.719Z,14.19
2018-10-07T14:11:58.609Z,14.11
2018-10-07T14:14:27.510Z,14.10
2018-10-07T14:16:56.449Z,14.00
2018-10-07T14:19:25.328Z,13.97
2018-10-07T14:21:54.215Z,14.11
2018-10-07T14:24:23.102Z,14.12
2018-10-07T14:26:52.007Z,14.13
2018-10-07T14:29:20.878Z,14.16
2018-10-07T14:31:49.773Z,14.15
2018-10-07T14:34:18.671Z,14.16
2018-10-07T14:36:47.596Z,14.24
2018-10-07T14:39:16.532Z,14.18
2018-10-07T14:41:45.378Z,14.16
2018-10-07T14:44:14.443Z,14.10
2018-10-07T14:46:43.333Z,14.14
2018-10-07T14:49:12.189Z,14.06
2018-10-07T14:51:41.107Z,14.08
2018-10-07T14:54:09.984Z,14.11
2018-10-07T14:56:38.979Z,14.07
2018-10-07T14:59:07.892Z,14.08
2018-10-07T15:01:36.768Z,14.22
2018-10-07T15:04:05.843Z,14.20
2018-10-07T15:06:35.050Z,14.10
2018-10-07T15:09:04.741Z,14.18
2018-10-07T15:11:33.997Z,14.15
2018-10-07T15:14:02.928Z,14.06
2018-10-07T15:16:31.866Z,14.10
2018-10-07T15:19:00.786Z,14.19
2018-10-07T15:21:29.753Z,14.11
2018-10-07T15:23:58.866Z,14.22
2018-10-07T15:26:27.852Z,14.18
2018-10-07T15:28:56.769Z,14.15
2018-10-07T15:31:25.681Z,14.05
2018-10-07T15:33:54.542Z,14.11
2018-10-07T15:36:23.431Z,14.02
2018-10-07T15:38:52.343Z,14.03
2018-10-07T15:41:21.411Z,14.08
2018-10-07T15:43:50.361Z,14.05
2018-10-07T15:46:19.528Z,14.02
2018-10-07T15:48:48.452Z,14.03
2018-10-07T15:51:17.439Z,13.87
2018-10-07T15:53:46.396Z,13.99
2018-10-07T15:56:15.311Z,14.03
2018-10-07T15:58:44.269Z,13.91
2018-10-07T16:01:13.177Z,13.97
2018-10-07T16:03:42.085Z,13.99
2018-10-07T16:06:11.004Z,13.88
2018-10-07T16:08:41.569Z,13.97
2018-10-07T16:11:10.467Z,13.88
2018-10-07T16:13:39.551Z,13.92
2018-10-07T16:16:08.464Z,13.85
2018-10-07T16:18:37.458Z,13.81
2018-10-07T16:21:06.304Z,13.80
2018-10-07T16:23:35.257Z,13.69
2018-10-07T16:26:04.158Z,13.72
2018-10-07T16:28:33.111Z,13.68
2018-10-07T16:31:02.138Z,13.60
2018-10-07T16:33:31.927Z,13.62
2018-10-07T16:36:00.959Z,13.52
2018-10-07T16:38:29.966Z,13.40
2018-10-07T16:40:58.850Z,13.43
2018-10-07T16:43:27.772Z,13.39
2018-10-07T16:45:56.671Z,13.32
2018-10-07T16:48:25.606Z,13.33
2018-10-07T16:50:54.556Z,13.24
2018-10-07T16:53:23.451Z,13.13
2018-10-07T16:55:52.360Z,13.03
2018-10-07T16:58:21.297Z,13.11
2018-10-07T17:00:50.283Z,12.96
2018-10-07T17:03:19.210Z,12.82
2018-10-07T17:05:48.103Z,12.80
2018-10-07T17:08:17.231Z,12.78
2018-10-07T17:10:46.165Z,12.57
2018-10-07T17:13:15.255Z,12.64
2018-10-07T17:15:44.025Z,12.41
2018-10-07T17:18:13.034Z,12.37
2018-10-07T17:20:41.950Z,12.19
2018-10-07T17:23:10.874Z,12.23
2018-10-07T17:25:39.772Z,12.24
2018-10-07T17:28:08.669Z,12.30
2018-10-07T17:30:37.578Z,12.03
2018-10-07T17:33:06.522Z,12.06
2018-10-07T17:35:35.448Z,12.11
2018-10-07T17:38:04.357Z,11.98
2018-10-07T17:40:33.254Z,11.89
2018-10-07T17:43:02.186Z,12.07
2018-10-07T17:45:31.163Z,12.25
2018-10-07T17:48:00.127Z,11.91
2018-10-07T17:50:29.109Z,12.00
2018-10-07T17:52:57.976Z,11.85
2018-10-07T17:55:26.895Z,11.91
2018-10-07T17:57:55.863Z,11.93
2018-10-07T18:00:24.761Z,11.71
2018-10-07T18:02:53.934Z,11.94
2018-10-07T18:05:22.815Z,11.66
2018-10-07T18:07:51.700Z,11.60
2018-10-07T18:10:20.634Z,11.62
2018-10-07T18:12:49.585Z,11.59
2018-10-07T18:15:18.531Z,11.54
2018-10-07T18:17:47.490Z,11.60
2018-10-07T18:20:16.489Z,11.65
2018-10-07T18:22:45.346Z,11.60
2018-10-07T18:25:14.311Z,11.48
2018-10-07T18:27:43.217Z,11.49
2018-10-07T18:30:12.125Z,11.51
2018-10-07T18:32:41.043Z,11.19
2018-10-07T18:35:09.957Z,11.27
2018-10-07T18:37:38.900Z,11.46
2018-10-07T18:40:07.914Z,11.47
2018-10-07T18:42:36.794Z,10.96
2018-10-07T18:45:05.847Z,10.94
2018-10-07T18:47:34.741Z,10.80
2018-10-07T18:50:03.652Z,10.73
2018-10-07T18:52:32.579Z,10.65
2018-10-07T18:55:01.552Z,10.68
2018-10-07T18:57:30.464Z,10.59
2018-10-07T18:59:59.353Z,10.50
2018-10-07T19:02:28.269Z,10.44
2018-10-07T19:04:57.219Z,10.36
2018-10-07T19:07:26.145Z,10.52
2018-10-07T19:09:55.381Z,10.74
2018-10-07T19:12:24.275Z,10.42
2018-10-07T19:14:53.201Z,10.29
2018-10-07T19:17:22.215Z,10.30
2018-10-07T19:19:51.174Z,10.33
2018-10-07T19:22:22.805Z,10.49
2018-10-07T19:24:51.719Z,10.52
2018-10-07T19:27:20.642Z,10.30
2018-10-07T19:29:50.414Z,10.25
2018-10-07T19:32:19.301Z,10.26
2018-10-07T19:34:48.272Z,10.10
2018-10-07T19:37:17.384Z,10.07
2018-10-07T19:39:46.131Z,10.03
2018-10-07T19:42:15.068Z,10.03
2018-10-07T19:44:44.111Z,10.40
2018-10-07T19:47:12.991Z,10.46
2018-10-07T19:49:41.910Z,10.55
2018-10-07T19:52:10.869Z,10.18
2018-10-07T19:54:39.749Z,10.03
2018-10-07T19:57:08.684Z,10.00
2018-10-07T19:59:37.596Z,9.92
2018-10-07T20:02:06.605Z,10.30
2018-10-07T20:04:35.529Z,10.22
2018-10-07T20:07:04.502Z,10.34
2018-10-07T20:09:33.455Z,10.00
2018-10-07T20:12:02.399Z,9.87
2018-10-07T20:14:31.291Z,9.76
2018-10-07T20:17:00.237Z,9.77
2018-10-07T20:19:29.184Z,9.61
2018-10-07T20:21:58.091Z,9.51
2018-10-07T20:24:27.012Z,9.60
2018-10-07T20:26:55.889Z,9.65
2018-10-07T20:29:24.867Z,9.45
2018-10-07T20:31:53.797Z,9.37
2018-10-07T20:34:22.799Z,9.45
2018-10-07T20:36:51.700Z,9.35
2018-10-07T20:39:20.582Z,9.73
2018-10-07T20:41:49.523Z,9.64
2018-10-07T20:44:19.283Z,9.31
2018-10-07T20:46:48.144Z,9.42
2018-10-07T20:49:17.134Z,9.38
2018-10-07T20:51:46.101Z,9.46
2018-10-07T20:54:15.019Z,9.33
2018-10-07T20:56:44.124Z,9.39
2018-10-07T20:59:13.001Z,9.26
2018-10-07T21:01:41.898Z,9.44
2018-10-07T21:04:13.705Z,9.19
2018-10-07T21:06:42.534Z,9.38
2018-10-07T21:09:12.266Z,8.87
2018-10-07T21:11:41.128Z,9.35
2018-10-07T21:14:10.030Z,8.84
2018-10-07T21:16:38.946Z,9.23
2018-10-07T21:19:07.816Z,9.18
2018-10-07T21:21:36.696Z,9.29
2018-10-07T21:24:05.616Z,9.17
2018-10-07T21:26:34.457Z,9.03
2018-10-07T21:29:03.344Z,8.94
2018-10-07T21:31:32.282Z,9.12
2018-10-07T21:34:01.181Z,8.89
2018-10-07T21:36:30.044Z,8.83
2018-10-07T21:38:58.921Z,8.70
2018-10-07T21:41:27.921Z,8.88
2018-10-07T21:43:56.992Z,9.03
2018-10-07T21:46:25.965Z,9.06
2018-10-07T21:48:54.859Z,8.87
2018-10-07T21:51:23.745Z,8.63
2018-10-07T21:53:52.667Z,8.58
2018-10-07T21:56:21.541Z,8.58
2018-10-07T21:58:50.567Z,8.80
2018-10-07T22:01:19.607Z,8.45
2018-10-07T22:03:48.463Z,8.73
2018-10-07T22:06:17.359Z,8.70
2018-10-07T22:08:46.537Z,8.62
2018-10-07T22:11:15.463Z,8.39
2018-10-07T22:13:44.301Z,8.51
2018-10-07T22:16:13.212Z,8.61
2018-10-07T22:18:42.150Z,8.66
2018-10-07T22:21:11.295Z,8.64
2018-10-07T22:23:40.200Z,8.63
2018-10-07T22:26:09.091Z,8.71
2018-10-07T22:28:38.085Z,8.73
2018-10-07T22:31:07.130Z,8.49
2018-10-07T22:33:36.045Z,8.62
2018-10-07T22:36:04.921Z,8.61
2018-10-07T22:38:33.871Z,8.60
2018-10-07T22:41:02.751Z,8.26
2018-10-07T22:43:31.660Z,8.16
2018-10-07T22:46:00.511Z,8.30
2018-10-07T22:48:29.407Z,8.41
2018-10-07T22:50:58.322Z,8.30
2018-10-07T22:53:27.210Z,8.66
2018-10-07T22:55:56.083Z,8.68
2018-10-07T22:58:28.938Z,8.62
2018-10-07T23:00:57.852Z,8.47
2018-10-07T23:03:26.706Z,8.48
2018-10-07T23:05:55.608Z,8.61
2018-10-07T23:08:25.705Z,8.58
2018-10-07T23:10:54.570Z,8.22
2018-10-07T23:13:23.448Z,8.16
2018-10-07T23:15:52.350Z,8.08
2018-10-07T23:18:21.224Z,8.08
2018-10-07T23:20:50.194Z,7.92
2018-10-07T23:23:19.099Z,7.78
2018-10-07T23:25:47.963Z,8.15
2018-10-07T23:28:16.891Z,8.13
2018-10-07T23:30:45.771Z,7.72
2018-10-07T23:33:14.797Z,7.82
2018-10-07T23:35:43.647Z,7.76
2018-10-07T23:38:12.515Z,7.98
2018-10-07T23:40:42.632Z,7.87
2018-10-07T23:43:11.542Z,7.79
2018-10-07T23:45:40.436Z,7.85
2018-10-07T23:48:09.283Z,7.82
2018-10-07T23:50:38.144Z,7.90
2018-10-07T23:53:07.032Z,7.76
2018-10-07T23:55:35.910Z,7.66
2018-10-07T23:58:04.755Z,7.90
